Time;durP1;ratioP1;P1;durP2;ratioP2;P2;SDS_P1;SDS_P2;PMS_P1;PMS_P2;Temp;Humidity;BMP_temperature;BMP_pressure;BME280_temperature;BME280_humidity;BME280_pressure;Samples;Min_cycle;Max_cycle;Signal;HPM_P1;HPM_P2
2022/05/14 00:00:57;;;;;;;0.60;0.40;;;;;;;;;;4985225;28;20394;-83
2022/05/14 00:03:25;;;;;;;1.27;1.03;;;;;;;;;;4975580;28;20038;-82
2022/05/14 00:05:51;;;;;;;0.73;0.60;;;;;;;;;;4988232;28;20041;-83
2022/05/14 00:08:16;;;;;;;0.73;0.52;;;;;;;;;;4987844;28;20118;-84
2022/05/14 00:13:26;;;;;;;1.13;0.70;;;;;;;;;;4986198;28;20052;-83
2022/05/14 00:15:51;;;;;;;0.47;0.38;;;;;;;;;;4975178;28;20038;-84
2022/05/14 00:18:17;;;;;;;1.52;0.82;;;;;;;;;;4976560;28;20038;-84
2022/05/14 00:20:43;;;;;;;0.50;0.40;;;;;;;;;;4972129;28;20038;-83
2022/05/14 00:23:08;;;;;;;6.60;0.93;;;;;;;;;;4987344;28;20034;-83
2022/05/14 00:25:35;;;;;;;0.47;0.40;;;;;;;;;;4983658;28;20076;-83
2022/05/14 00:28:01;;;;;;;0.40;0.38;;;;;;;;;;4970355;28;20037;-83
2022/05/14 00:30:29;;;;;;;0.40;0.40;;;;;;;;;;4970432;28;20045;-83
2022/05/14 00:32:54;;;;;;;0.38;0.30;;;;;;;;;;4988000;28;20041;-83
2022/05/14 00:35:22;;;;;;;0.57;0.40;;;;;;;;;;4975111;28;20184;-83
2022/05/14 00:37:48;;;;;;;0.30;0.30;;;;;;;;;;4985195;28;20042;-83
2022/05/14 00:40:23;;;;;;;0.52;0.35;;;;;;;;;;4964576;28;20099;-83
2022/05/14 00:42:49;;;;;;;0.75;0.52;;;;;;;;;;4982681;28;20033;-83
2022/05/14 00:45:16;;;;;;;2.50;0.70;;;;;;;;;;4973918;28;20413;-83
2022/05/14 00:47:42;;;;;;;;;;;;;;;;;;4966111;28;20041;-82
2022/05/14 00:50:37;;;;;;;0.68;0.55;;;;;;;;;;4974429;28;19921;-85
2022/05/14 00:53:07;;;;;;;0.40;0.30;;;;;;;;;;4981983;28;20034;-83
2022/05/14 00:55:32;;;;;;;0.13;0.13;;;;;;;;;;4986846;28;20034;-83
2022/05/14 00:58:00;;;;;;;0.38;0.22;;;;;;;;;;4971179;28;20037;-84
2022/05/14 01:00:25;;;;;;;14.38;0.50;;;;;;;;;;4975753;28;20046;-83
2022/05/14 01:02:51;;;;;;;0.65;0.47;;;;;;;;;;4987275;28;20484;-84
2022/05/14 01:05:18;;;;;;;0.68;0.52;;;;;;;;;;4977330;28;20386;-84
2022/05/14 01:07:44;;;;;;;0.75;0.55;;;;;;;;;;4987216;28;20044;-84
2022/05/14 01:10:11;;;;;;;0.95;0.70;;;;;;;;;;4985639;28;20045;-84
2022/05/14 01:12:40;;;;;;;0.20;0.20;;;;;;;;;;4970911;28;20126;-82
2022/05/14 01:15:18;;;;;;;4.20;1.55;;;;;;;;;;4972400;28;20104;-84
2022/05/14 01:17:43;;;;;;;0.85;0.43;;;;;;;;;;4993016;28;20415;-85
2022/05/14 01:20:09;;;;;;;0.45;0.30;;;;;;;;;;4962287;28;20038;-85
2022/05/14 01:22:40;;;;;;;0.38;0.35;;;;;;;;;;4971645;28;20034;-85
2022/05/14 01:27:58;;;;;;;0.20;0.20;;;;;;;;;;4989701;28;20126;-84
2022/05/14 01:30:24;;;;;;;1.23;0.65;;;;;;;;;;4966217;28;20038;-84
2022/05/14 01:33:04;;;;;;;0.45;0.35;;;;;;;;;;4972503;28;20045;-84
2022/05/14 01:35:35;;;;;;;0.70;0.45;;;;;;;;;;4984591;28;20029;-84
2022/05/14 01:38:01;;;;;;;0.40;0.25;;;;;;;;;;4986226;28;20481;-84
2022/05/14 01:40:26;;;;;;;0.55;0.30;;;;;;;;;;4987185;28;20099;-84
2022/05/14 01:42:51;;;;;;;0.63;0.43;;;;;;;;;;4975094;28;20041;-88
2022/05/14 01:45:17;;;;;;;0.88;0.60;;;;;;;;;;4971545;28;20030;-84
2022/05/14 01:47:42;;;;;;;0.55;0.47;;;;;;;;;;4978414;28;20034;-83
2022/05/14 01:50:08;;;;;;;1.45;0.95;;;;;;;;;;4972452;28;20045;-85
2022/05/14 01:52:34;;;;;;;1.05;0.75;;;;;;;;;;4976352;28;20041;-84
2022/05/14 01:54:59;;;;;;;1.98;1.20;;;;;;;;;;4977430;28;20077;-86
2022/05/14 01:57:25;;;;;;;0.43;0.32;;;;;;;;;;4975096;28;20041;-85
2022/05/14 01:59:53;;;;;;;0.40;0.30;;;;;;;;;;4974825;28;20045;-84
2022/05/14 02:02:18;;;;;;;0.60;0.38;;;;;;;;;;4990796;28;20029;-84
2022/05/14 02:04:43;;;;;;;0.57;0.45;;;;;;;;;;4992350;28;20045;-84
2022/05/14 02:07:09;;;;;;;1.58;0.75;;;;;;;;;;4979807;28;20449;-83
2022/05/14 02:09:34;;;;;;;7.05;0.93;;;;;;;;;;4977620;28;20233;-86
2022/05/14 02:12:01;;;;;;;0.82;0.60;;;;;;;;;;4976512;28;20030;-84
2022/05/14 02:14:26;;;;;;;0.20;0.20;;;;;;;;;;4975545;28;20116;-84
2022/05/14 02:16:51;;;;;;;3.30;0.93;;;;;;;;;;4977240;28;20121;-86
2022/05/14 02:19:17;;;;;;;0.82;0.57;;;;;;;;;;4976024;28;20038;-86
2022/05/14 02:21:42;;;;;;;1.05;0.52;;;;;;;;;;4977868;28;20515;-84
2022/05/14 02:24:08;;;;;;;3.20;0.93;;;;;;;;;;4975959;28;20046;-85
2022/05/14 02:26:33;;;;;;;0.30;0.20;;;;;;;;;;4979651;28;20532;-85
2022/05/14 02:28:58;;;;;;;0.65;0.47;;;;;;;;;;4980477;28;20052;-85
2022/05/14 02:31:24;;;;;;;2.80;0.63;;;;;;;;;;4979074;28;20517;-85
2022/05/14 02:33:49;;;;;;;2.00;0.90;;;;;;;;;;4975892;28;20324;-85
2022/05/14 02:36:14;;;;;;;1.42;0.70;;;;;;;;;;4991248;28;20048;-85
2022/05/14 02:38:40;;;;;;;0.20;0.20;;;;;;;;;;4975860;28;20405;-84
2022/05/14 02:41:07;;;;;;;0.40;0.40;;;;;;;;;;4985812;28;20038;-86
2022/05/14 02:43:32;;;;;;;0.47;0.40;;;;;;;;;;4991319;28;20041;-83
2022/05/14 02:45:59;;;;;;;0.70;0.50;;;;;;;;;;4975025;28;20041;-84
2022/05/14 02:48:25;;;;;;;0.35;0.25;;;;;;;;;;4975153;28;20038;-84
2022/05/14 02:50:51;;;;;;;0.60;0.38;;;;;;;;;;4979660;28;20042;-84
2022/05/14 02:53:16;;;;;;;1.30;0.70;;;;;;;;;;4976051;28;20034;-84
2022/05/14 02:55:44;;;;;;;0.77;0.47;;;;;;;;;;4989509;28;20161;-84
2022/05/14 02:58:12;;;;;;;0.70;0.52;;;;;;;;;;4973477;28;20084;-83
2022/05/14 03:00:37;;;;;;;1.48;0.82;;;;;;;;;;4985562;28;20041;-81
2022/05/14 03:03:02;;;;;;;0.85;0.60;;;;;;;;;;4973501;28;20496;-81
2022/05/14 03:05:28;;;;;;;1.23;0.50;;;;;;;;;;4975470;28;20145;-81
2022/05/14 03:07:53;;;;;;;0.38;0.30;;;;;;;;;;4989017;28;20041;-81
2022/05/14 03:10:19;;;;;;;1.10;0.77;;;;;;;;;;4980166;28;20042;-82
2022/05/14 03:12:47;;;;;;;6.43;1.30;;;;;;;;;;4973146;28;20046;-81
2022/05/14 03:15:13;;;;;;;0.90;0.73;;;;;;;;;;4972193;28;20034;-79
2022/05/14 03:17:38;;;;;;;0.20;0.20;;;;;;;;;;4988466;28;20030;-80
2022/05/14 03:20:06;;;;;;;0.98;0.68;;;;;;;;;;4974216;28;20045;-78
2022/05/14 03:22:39;;;;;;;0.32;0.28;;;;;;;;;;4980157;28;20037;-79
2022/05/14 03:25:06;;;;;;;0.38;0.25;;;;;;;;;;4968661;28;20034;-78
2022/05/14 03:27:32;;;;;;;0.45;0.38;;;;;;;;;;4988034;28;20037;-79
2022/05/14 03:29:57;;;;;;;0.55;0.40;;;;;;;;;;4975256;28;20060;-79
2022/05/14 03:32:24;;;;;;;0.73;0.43;;;;;;;;;;4973270;28;20477;-79
2022/05/14 03:34:50;;;;;;;0.88;0.65;;;;;;;;;;5004712;28;20232;-79
2022/05/14 03:37:15;;;;;;;0.77;0.68;;;;;;;;;;4970895;28;20053;-79
2022/05/14 03:39:40;;;;;;;0.40;0.40;;;;;;;;;;4972681;28;20042;-79
2022/05/14 03:42:06;;;;;;;0.90;0.38;;;;;;;;;;5003893;28;20033;-80
2022/05/14 03:44:31;;;;;;;1.27;0.68;;;;;;;;;;4963318;28;20037;-80
2022/05/14 03:46:57;;;;;;;0.52;0.45;;;;;;;;;;4970987;28;20064;-79
2022/05/14 03:49:22;;;;;;;0.68;0.50;;;;;;;;;;4976479;28;20042;-79
2022/05/14 03:51:53;;;;;;;0.93;0.80;;;;;;;;;;4987520;28;20038;-80
2022/05/14 03:54:19;;;;;;;0.65;0.28;;;;;;;;;;4984029;28;20041;-80
2022/05/14 03:56:44;;;;;;;0.52;0.32;;;;;;;;;;4971253;28;20042;-80
2022/05/14 03:59:10;;;;;;;0.57;0.43;;;;;;;;;;4987157;28;20092;-79
2022/05/14 04:01:36;;;;;;;0.20;0.20;;;;;;;;;;4976051;28;20046;-82
2022/05/14 04:04:01;;;;;;;0.55;0.40;;;;;;;;;;4984152;28;20049;-80
2022/05/14 04:06:27;;;;;;;0.57;0.43;;;;;;;;;;4968455;28;20034;-79
2022/05/14 04:08:52;;;;;;;0.50;0.30;;;;;;;;;;4984129;28;20049;-79
2022/05/14 04:11:18;;;;;;;1.05;0.50;;;;;;;;;;4971835;28;20038;-80
2022/05/14 04:13:43;;;;;;;1.08;0.63;;;;;;;;;;4968074;28;20042;-78
2022/05/14 04:16:09;;;;;;;1.10;0.70;;;;;;;;;;4967288;28;20533;-79
2022/05/14 04:18:35;;;;;;;2.08;1.02;;;;;;;;;;4951634;28;20046;-78
2022/05/14 04:21:01;;;;;;;0.57;0.43;;;;;;;;;;4981927;28;20117;-78
2022/05/14 04:23:31;;;;;;;0.30;0.20;;;;;;;;;;4983586;28;20780;-79
2022/05/14 04:25:57;;;;;;;1.27;0.77;;;;;;;;;;4973754;28;20038;-82
2022/05/14 04:28:23;;;;;;;2.17;0.73;;;;;;;;;;4984320;28;20058;-81
2022/05/14 04:30:49;;;;;;;0.50;0.30;;;;;;;;;;4967733;28;20129;-81
2022/05/14 04:33:15;;;;;;;0.80;0.25;;;;;;;;;;4967652;28;20046;-83
2022/05/14 04:35:40;;;;;;;0.63;0.35;;;;;;;;;;4983479;28;20084;-80
2022/05/14 04:38:06;;;;;;;0.77;0.63;;;;;;;;;;4971640;28;20410;-81
2022/05/14 04:40:32;;;;;;;1.10;0.60;;;;;;;;;;4982815;28;20037;-80
2022/05/14 04:42:57;;;;;;;0.60;0.40;;;;;;;;;;4968441;28;20096;-81
2022/05/14 04:45:22;;;;;;;0.35;0.32;;;;;;;;;;4972870;28;20088;-79
2022/05/14 04:47:48;;;;;;;1.05;0.75;;;;;;;;;;4982897;28;20042;-79
2022/05/14 04:50:14;;;;;;;2.10;0.93;;;;;;;;;;4983037;28;20498;-80
2022/05/14 04:52:39;;;;;;;1.13;0.65;;;;;;;;;;4967243;28;20034;-83
2022/05/14 04:55:06;;;;;;;0.25;0.25;;;;;;;;;;4970943;28;20557;-80
2022/05/14 04:57:31;;;;;;;0.68;0.47;;;;;;;;;;4982894;28;20038;-79
2022/05/14 04:59:56;;;;;;;2.38;0.57;;;;;;;;;;4971627;28;20038;-80
2022/05/14 05:05:17;;;;;;;0.40;0.30;;;;;;;;;;4983750;28;20513;-88
2022/05/14 05:07:43;;;;;;;3.63;0.60;;;;;;;;;;4968038;28;20034;-79
2022/05/14 05:10:08;;;;;;;0.43;0.32;;;;;;;;;;4967115;28;20092;-79
2022/05/14 05:12:34;;;;;;;0.30;0.30;;;;;;;;;;4968953;28;20038;-78
2022/05/14 05:14:59;;;;;;;1.05;0.63;;;;;;;;;;4984425;28;20041;-77
2022/05/14 05:17:24;;;;;;;0.85;0.68;;;;;;;;;;4982845;28;20437;-78
2022/05/14 05:19:50;;;;;;;1.65;0.75;;;;;;;;;;4968287;28;20038;-78
2022/05/14 05:22:15;;;;;;;23.10;0.70;;;;;;;;;;4968151;28;20425;-79
2022/05/14 05:24:41;;;;;;;1.50;0.93;;;;;;;;;;4959680;28;20074;-77
2022/05/14 05:27:06;;;;;;;0.55;0.38;;;;;;;;;;4984133;28;20043;-78
2022/05/14 05:29:31;;;;;;;0.73;0.50;;;;;;;;;;4999894;28;20042;-79
2022/05/14 05:31:57;;;;;;;0.47;0.40;;;;;;;;;;4987529;28;20027;-78
2022/05/14 05:34:22;;;;;;;1.40;0.43;;;;;;;;;;4984130;28;20033;-79
2022/05/14 05:36:47;;;;;;;0.20;0.20;;;;;;;;;;4972164;28;20565;-78
2022/05/14 05:39:13;;;;;;;0.50;0.38;;;;;;;;;;4973551;28;20082;-78
2022/05/14 05:41:38;;;;;;;0.77;0.50;;;;;;;;;;4973110;28;20044;-78
2022/05/14 05:44:04;;;;;;;0.25;0.25;;;;;;;;;;4987725;28;20109;-79
2022/05/14 05:46:32;;;;;;;1.20;0.17;;;;;;;;;;4971604;28;20055;-79
2022/05/14 05:48:58;;;;;;;0.40;0.25;;;;;;;;;;4971507;28;20034;-80
2022/05/14 05:51:23;;;;;;;1.55;0.82;;;;;;;;;;4975973;28;20041;-78
2022/05/14 05:56:51;;;;;;;0.45;0.25;;;;;;;;;;4985999;28;20104;-79
2022/05/14 05:59:17;;;;;;;0.60;0.40;;;;;;;;;;4974751;28;20041;-79
2022/05/14 06:01:43;;;;;;;0.50;0.43;;;;;;;;;;4975906;28;20034;-80
2022/05/14 06:04:09;;;;;;;1.67;0.77;;;;;;;;;;4971028;28;20050;-79
2022/05/14 06:06:42;;;;;;;0.40;0.30;;;;;;;;;;4987703;28;20038;-79
2022/05/14 06:09:10;;;;;;;0.52;0.32;;;;;;;;;;4972197;28;20486;-79
2022/05/14 06:11:35;;;;;;;2.08;0.60;;;;;;;;;;4962528;28;20065;-79
2022/05/14 06:14:00;;;;;;;1.92;0.55;;;;;;;;;;4987768;28;20094;-79
2022/05/14 06:16:26;;;;;;;0.22;0.20;;;;;;;;;;4971766;28;20046;-78
2022/05/14 06:18:51;;;;;;;1.13;0.45;;;;;;;;;;4987346;28;20173;-78
2022/05/14 06:21:17;;;;;;;0.82;0.63;;;;;;;;;;4970912;28;20027;-79
2022/05/14 06:23:42;;;;;;;0.50;0.32;;;;;;;;;;4987500;28;20037;-78
2022/05/14 06:26:09;;;;;;;0.32;0.25;;;;;;;;;;4970982;28;20620;-79
2022/05/14 06:28:37;;;;;;;0.60;0.40;;;;;;;;;;4976008;28;20493;-78
2022/05/14 06:31:02;;;;;;;2.20;0.95;;;;;;;;;;4973409;28;20057;-78
2022/05/14 06:33:28;;;;;;;3.47;0.98;;;;;;;;;;4976818;28;20432;-79
2022/05/14 06:35:53;;;;;;;0.10;0.10;;;;;;;;;;4968832;28;20061;-79
2022/05/14 06:38:19;;;;;;;0.40;0.40;;;;;;;;;;4970634;28;20033;-79
2022/05/14 06:40:45;;;;;;;0.22;0.20;;;;;;;;;;4983852;28;20145;-79
2022/05/14 06:43:11;;;;;;;1.90;0.93;;;;;;;;;;4974278;28;20105;-78
2022/05/14 06:45:36;;;;;;;0.52;0.38;;;;;;;;;;4986414;28;20433;-79
2022/05/14 06:48:02;;;;;;;2.22;0.82;;;;;;;;;;4974288;28;20045;-79
2022/05/14 06:50:29;;;;;;;0.20;0.20;;;;;;;;;;4969909;28;20042;-79
2022/05/14 06:52:58;;;;;;;1.02;0.63;;;;;;;;;;4986942;28;20084;-79
2022/05/14 06:55:26;;;;;;;8.52;1.00;;;;;;;;;;4986379;28;20505;-80
2022/05/14 06:57:52;;;;;;;1.05;0.43;;;;;;;;;;4987658;28;20070;-79
2022/05/14 07:00:18;;;;;;;1.40;0.82;;;;;;;;;;4969569;28;20108;-78
2022/05/14 07:02:45;;;;;;;0.52;0.43;;;;;;;;;;4970638;28;20105;-78
2022/05/14 07:07:54;;;;;;;0.38;0.38;;;;;;;;;;4985529;28;20145;-77
2022/05/14 07:10:20;;;;;;;0.68;0.45;;;;;;;;;;4970285;28;20034;-78
2022/05/14 07:12:46;;;;;;;1.70;0.98;;;;;;;;;;4970757;28;20518;-77
2022/05/14 07:15:14;;;;;;;1.17;0.47;;;;;;;;;;4985895;28;20548;-77
2022/05/14 07:17:39;;;;;;;2.10;0.73;;;;;;;;;;4969943;28;20050;-78
2022/05/14 07:20:05;;;;;;;1.80;0.63;;;;;;;;;;4983435;28;20038;-78
2022/05/14 07:22:31;;;;;;;0.45;0.28;;;;;;;;;;4969981;28;20496;-77
2022/05/14 07:24:56;;;;;;;0.50;0.30;;;;;;;;;;4970119;28;20034;-78
2022/05/14 07:27:21;;;;;;;0.32;0.20;;;;;;;;;;4985666;28;20038;-77
2022/05/14 07:29:47;;;;;;;0.20;0.15;;;;;;;;;;4985461;28;20092;-78
2022/05/14 07:32:14;;;;;;;0.20;0.17;;;;;;;;;;4969845;28;20168;-78
2022/05/14 07:34:40;;;;;;;0.43;0.30;;;;;;;;;;4970674;28;20065;-77
2022/05/14 07:37:13;;;;;;;0.55;0.30;;;;;;;;;;4969000;28;20058;-77
2022/05/14 07:39:43;;;;;;;0.85;0.60;;;;;;;;;;4986592;28;20046;-76
2022/05/14 07:42:12;;;;;;;0.95;0.47;;;;;;;;;;4974875;28;20112;-80
2022/05/14 07:44:40;;;;;;;1.85;0.77;;;;;;;;;;4969900;28;20046;-78
2022/05/14 07:47:06;;;;;;;1.27;0.47;;;;;;;;;;4985148;28;20053;-79
2022/05/14 07:49:32;;;;;;;1.05;0.50;;;;;;;;;;4970367;28;20089;-77
2022/05/14 07:51:58;;;;;;;0.65;0.40;;;;;;;;;;4983637;28;20041;-77
2022/05/14 07:54:23;;;;;;;1.17;0.65;;;;;;;;;;4984451;28;20057;-78
2022/05/14 07:56:49;;;;;;;0.60;0.30;;;;;;;;;;4968671;28;20085;-78
2022/05/14 07:59:15;;;;;;;1.90;0.65;;;;;;;;;;4970177;28;20045;-77
2022/05/14 08:01:40;;;;;;;0.82;0.57;;;;;;;;;;4970984;28;20038;-77
2022/05/14 08:04:07;;;;;;;0.68;0.40;;;;;;;;;;4968205;28;20042;-78
2022/05/14 08:06:33;;;;;;;1.27;0.60;;;;;;;;;;4970327;28;20070;-77
2022/05/14 08:08:58;;;;;;;0.70;0.50;;;;;;;;;;4980084;28;20525;-77
2022/05/14 08:11:24;;;;;;;0.22;0.13;;;;;;;;;;4982812;28;20050;-79
2022/05/14 08:13:53;;;;;;;0.30;0.20;;;;;;;;;;4971658;28;20406;-78
2022/05/14 08:16:19;;;;;;;0.40;0.25;;;;;;;;;;4985515;28;20030;-78
2022/05/14 08:18:47;;;;;;;0.65;0.55;;;;;;;;;;4975432;28;20069;-78
2022/05/14 08:26:40;;;;;;;1.42;0.85;;;;;;;;;;4998484;28;20093;-77
2022/05/14 08:29:05;;;;;;;0.65;0.30;;;;;;;;;;4969071;28;20046;-78
2022/05/14 08:31:31;;;;;;;4.88;0.90;;;;;;;;;;4967961;28;20030;-76
2022/05/14 08:33:56;;;;;;;0.90;0.40;;;;;;;;;;4969617;28;20042;-80
2022/05/14 08:36:21;;;;;;;0.00;0.00;;;;;;;;;;4968208;28;20045;-78
2022/05/14 08:38:46;;;;;;;1.38;0.43;;;;;;;;;;4972616;28;20126;-77
2022/05/14 08:41:15;;;;;;;0.90;0.47;;;;;;;;;;4973188;28;20401;-78
2022/05/14 08:43:46;;;;;;;0.65;0.40;;;;;;;;;;4984449;28;20576;-78
2022/05/14 08:46:14;;;;;;;0.90;0.45;;;;;;;;;;4984396;28;20037;-79
2022/05/14 08:48:40;;;;;;;0.20;0.20;;;;;;;;;;4984086;28;20030;-77
2022/05/14 08:51:09;;;;;;;1.30;0.70;;;;;;;;;;4981189;28;21016;-78
2022/05/14 08:53:35;;;;;;;0.60;0.30;;;;;;;;;;4984929;28;20501;-77
2022/05/14 08:56:16;;;;;;;0.47;0.27;;;;;;;;;;4968608;28;20125;-80
2022/05/14 08:58:50;;;;;;;0.10;0.10;;;;;;;;;;4985405;28;20148;-79
2022/05/14 09:01:24;;;;;;;0.82;0.40;;;;;;;;;;4984345;28;20113;-77
2022/05/14 09:03:50;;;;;;;0.50;0.20;;;;;;;;;;4987449;28;20141;-79
2022/05/14 09:06:16;;;;;;;0.20;0.10;;;;;;;;;;4986574;28;20678;-78
2022/05/14 09:08:41;;;;;;;2.80;0.70;;;;;;;;;;4962800;28;20038;-78
2022/05/14 09:11:18;;;;;;;1.33;0.63;;;;;;;;;;4971407;28;20037;-79
2022/05/14 09:13:45;;;;;;;;;;;;;;;;;;4998475;28;20053;-78
2022/05/14 09:16:31;;;;;;;1.85;1.17;;;;;;;;;;4971095;28;20060;-79
2022/05/14 09:18:57;;;;;;;6.57;1.05;;;;;;;;;;4969054;28;20044;-79
2022/05/14 09:21:28;;;;;;;0.15;0.10;;;;;;;;;;4971566;28;20022;-78
2022/05/14 09:24:11;;;;;;;0.77;0.40;;;;;;;;;;5004673;28;20049;-79
2022/05/14 09:26:38;;;;;;;0.52;0.20;;;;;;;;;;4974421;28;20042;-79
2022/05/14 09:29:18;;;;;;;1.42;0.68;;;;;;;;;;4997323;28;20140;-80
2022/05/14 09:32:05;;;;;;;0.75;0.25;;;;;;;;;;4987626;28;20895;-79
2022/05/14 09:34:32;;;;;;;0.82;0.30;;;;;;;;;;4987878;28;20091;-80
2022/05/14 09:37:07;;;;;;;0.20;0.10;;;;;;;;;;4967494;28;20069;-79
2022/05/14 09:39:32;;;;;;;1.45;0.75;;;;;;;;;;4974985;28;20505;-79
2022/05/14 09:42:02;;;;;;;0.10;0.10;;;;;;;;;;4960193;28;20052;-80
2022/05/14 09:44:29;;;;;;;0.93;0.40;;;;;;;;;;4977731;28;20105;-79
2022/05/14 09:47:08;;;;;;;1.02;0.40;;;;;;;;;;4984884;28;20077;-79
2022/05/14 09:49:33;;;;;;;0.20;0.10;;;;;;;;;;4987794;28;20515;-78
2022/05/14 09:52:04;;;;;;;0.57;0.25;;;;;;;;;;4970897;28;20113;-80
2022/05/14 09:54:41;;;;;;;0.10;0.10;;;;;;;;;;4969631;28;20406;-78
2022/05/14 09:57:25;;;;;;;3.95;0.77;;;;;;;;;;4973444;28;20038;-79
2022/05/14 10:00:03;;;;;;;0.52;0.30;;;;;;;;;;4987663;28;20164;-78
2022/05/14 10:02:47;;;;;;;0.30;0.10;;;;;;;;;;4987393;28;20049;-79
2022/05/14 10:05:27;;;;;;;0.63;0.20;;;;;;;;;;4986284;28;20501;-78
2022/05/14 10:07:57;;;;;;;0.05;0.05;;;;;;;;;;4987159;28;20065;-80
2022/05/14 10:10:41;;;;;;;1.85;0.68;;;;;;;;;;4992871;28;20033;-82
2022/05/14 10:13:15;;;;;;;0.55;0.30;;;;;;;;;;4986316;28;20250;-80
2022/05/14 10:16:03;;;;;;;0.93;0.20;;;;;;;;;;4973389;28;20049;-77
2022/05/14 10:18:42;;;;;;;1.63;0.22;;;;;;;;;;4974347;28;20042;-78
2022/05/14 10:21:11;;;;;;;0.70;0.35;;;;;;;;;;4975423;28;20209;-77
2022/05/14 10:27:02;;;;;;;1.20;0.63;;;;;;;;;;5006590;28;20104;-76
2022/05/14 10:29:42;;;;;;;2.05;0.77;;;;;;;;;;5008523;28;20033;-79
2022/05/14 10:32:12;;;;;;;1.17;0.70;;;;;;;;;;5005083;28;20046;-79
2022/05/14 10:34:43;;;;;;;0.40;0.10;;;;;;;;;;4989917;28;20543;-79
2022/05/14 10:37:29;;;;;;;2.03;0.68;;;;;;;;;;5007315;28;20030;-79
2022/05/14 10:40:03;;;;;;;0.85;0.63;;;;;;;;;;4977429;28;20048;-80
2022/05/14 10:42:47;;;;;;;1.08;0.40;;;;;;;;;;4989726;28;20049;-78
2022/05/14 10:45:16;;;;;;;0.77;0.30;;;;;;;;;;4989608;28;20064;-79
2022/05/14 10:47:46;;;;;;;0.93;0.47;;;;;;;;;;4974013;28;20114;-79
2022/05/14 10:50:18;;;;;;;0.22;0.15;;;;;;;;;;4972207;28;20038;-77
2022/05/14 10:52:45;;;;;;;0.20;0.13;;;;;;;;;;4989574;28;20050;-78
2022/05/14 10:55:33;;;;;;;0.10;0.10;;;;;;;;;;4973776;28;20401;-77
2022/05/14 10:58:04;;;;;;;3.92;0.73;;;;;;;;;;4973240;28;20036;-81
2022/05/14 11:00:30;;;;;;;0.70;0.30;;;;;;;;;;4973297;28;20038;-78
2022/05/14 11:02:58;;;;;;;3.50;0.63;;;;;;;;;;5007644;28;20093;-81
2022/05/14 11:05:51;;;;;;;0.68;0.38;;;;;;;;;;4972459;28;20315;-79
2022/05/14 11:08:36;;;;;;;0.88;0.40;;;;;;;;;;4985478;28;20033;-79
2022/05/14 11:11:02;;;;;;;1.17;0.63;;;;;;;;;;4974013;28;20042;-81
2022/05/14 11:13:28;;;;;;;1.08;0.28;;;;;;;;;;4989149;28;20034;-80
2022/05/14 11:16:03;;;;;;;0.60;0.35;;;;;;;;;;4978610;28;20050;-80
2022/05/14 11:18:28;;;;;;;1.38;0.40;;;;;;;;;;4982358;28;20033;-80
2022/05/14 11:20:57;;;;;;;1.98;0.73;;;;;;;;;;4988715;28;20041;-79
2022/05/14 11:23:23;;;;;;;0.73;0.30;;;;;;;;;;4989013;28;20042;-79
2022/05/14 11:26:06;;;;;;;1.17;0.43;;;;;;;;;;4976754;28;20030;-79
2022/05/14 11:28:34;;;;;;;0.00;0.00;;;;;;;;;;4976795;28;20030;-78
2022/05/14 11:31:22;;;;;;;0.90;0.40;;;;;;;;;;4973659;28;20033;-80
2022/05/14 11:33:48;;;;;;;0.52;0.28;;;;;;;;;;4968234;28;20042;-80
2022/05/14 11:36:13;;;;;;;0.60;0.30;;;;;;;;;;4972887;28;20053;-79
2022/05/14 11:38:44;;;;;;;0.20;0.10;;;;;;;;;;4989798;28;20042;-78
2022/05/14 11:41:31;;;;;;;0.52;0.22;;;;;;;;;;4988977;28;20041;-78
2022/05/14 11:43:56;;;;;;;2.37;0.63;;;;;;;;;;4982689;28;20498;-78
2022/05/14 11:46:32;;;;;;;5.65;0.85;;;;;;;;;;4975587;28;20065;-80
2022/05/14 11:49:04;;;;;;;0.28;0.13;;;;;;;;;;4967406;28;20038;-79
2022/05/14 11:51:38;;;;;;;2.00;1.00;;;;;;;;;;4973863;28;20489;-79
2022/05/14 11:54:24;;;;;;;3.97;0.60;;;;;;;;;;4984457;28;20477;-78
2022/05/14 11:57:02;;;;;;;0.40;0.10;;;;;;;;;;4988128;28;20037;-79
2022/05/14 11:59:43;;;;;;;0.68;0.50;;;;;;;;;;4973833;28;20030;-78
2022/05/14 12:02:47;;;;;;;1.38;0.75;;;;;;;;;;4971630;28;20045;-78
2022/05/14 12:05:22;;;;;;;1.05;0.55;;;;;;;;;;4981895;28;20042;-81
2022/05/14 12:08:17;;;;;;;0.73;0.25;;;;;;;;;;4964181;28;20054;-79
2022/05/14 12:10:53;;;;;;;0.55;0.20;;;;;;;;;;4971768;28;20393;-78
2022/05/14 12:13:40;;;;;;;2.88;0.25;;;;;;;;;;4973070;28;20045;-78
2022/05/14 12:16:05;;;;;;;2.95;0.80;;;;;;;;;;4988099;28;20117;-80
2022/05/14 12:18:31;;;;;;;1.02;0.40;;;;;;;;;;4972456;28;20167;-79
2022/05/14 12:20:59;;;;;;;0.85;0.50;;;;;;;;;;4987867;28;20474;-80
2022/05/14 12:23:39;;;;;;;0.38;0.20;;;;;;;;;;4979163;28;20055;-79
2022/05/14 12:26:07;;;;;;;0.15;0.13;;;;;;;;;;4972027;28;20366;-77
2022/05/14 12:28:33;;;;;;;;;;;;;;;;;;4984594;28;20050;-78
2022/05/14 12:33:55;;;;;;;1.95;0.93;;;;;;;;;;4990504;28;20095;-78
2022/05/14 12:36:21;;;;;;;3.60;0.93;;;;;;;;;;5003956;28;20037;-78
2022/05/14 12:38:46;;;;;;;5.38;0.90;;;;;;;;;;4971585;28;20488;-79
2022/05/14 12:41:32;;;;;;;0.75;0.30;;;;;;;;;;4977451;28;20117;-79
2022/05/14 12:44:11;;;;;;;0.52;0.20;;;;;;;;;;4972616;28;20041;-77
2022/05/14 12:46:42;;;;;;;0.45;0.30;;;;;;;;;;4987415;28;20034;-78
2022/05/14 12:49:25;;;;;;;0.30;0.20;;;;;;;;;;4963256;28;20409;-77
2022/05/14 12:51:54;;;;;;;0.90;0.68;;;;;;;;;;4986289;28;20041;-77
2022/05/14 12:54:27;;;;;;;0.68;0.52;;;;;;;;;;4987990;28;20493;-77
2022/05/14 12:56:57;;;;;;;1.08;0.45;;;;;;;;;;4986288;28;20054;-77
2022/05/14 12:59:22;;;;;;;0.68;0.38;;;;;;;;;;4972301;28;20034;-77
2022/05/14 13:01:50;;;;;;;1.02;0.63;;;;;;;;;;4975712;28;20049;-79
2022/05/14 13:04:18;;;;;;;7.03;0.88;;;;;;;;;;4971337;28;20073;-78
2022/05/14 13:06:45;;;;;;;0.90;0.50;;;;;;;;;;4980083;28;20030;-77
2022/05/14 13:09:11;;;;;;;0.45;0.22;;;;;;;;;;4987721;28;20512;-80
2022/05/14 13:11:44;;;;;;;1.13;0.40;;;;;;;;;;4973376;28;20038;-79
2022/05/14 13:14:31;;;;;;;0.60;0.30;;;;;;;;;;4986850;28;20042;-78
2022/05/14 13:17:01;;;;;;;1.52;0.68;;;;;;;;;;4969862;28;21136;-78
2022/05/14 13:19:38;;;;;;;0.55;0.30;;;;;;;;;;4971361;28;20129;-77
2022/05/14 13:22:07;;;;;;;0.60;0.32;;;;;;;;;;4972520;28;20042;-78
2022/05/14 13:24:34;;;;;;;1.20;0.63;;;;;;;;;;4971794;28;20196;-79
2022/05/14 13:27:01;;;;;;;0.43;0.17;;;;;;;;;;4970669;28;20152;-78
2022/05/14 13:29:35;;;;;;;0.63;0.30;;;;;;;;;;4971211;28;20053;-79
2022/05/14 13:32:07;;;;;;;4.85;0.77;;;;;;;;;;4970650;28;20196;-78
2022/05/14 13:37:37;;;;;;;1.05;0.38;;;;;;;;;;4988789;28;20033;-78
2022/05/14 13:40:17;;;;;;;0.60;0.32;;;;;;;;;;4977337;28;20034;-78
2022/05/14 13:43:12;;;;;;;0.55;0.25;;;;;;;;;;4970096;28;20038;-78
2022/05/14 13:45:40;;;;;;;0.20;0.10;;;;;;;;;;4984698;28;20541;-79
2022/05/14 13:48:08;;;;;;;1.30;0.63;;;;;;;;;;4971581;28;20062;-80
2022/05/14 13:50:37;;;;;;;1.50;0.57;;;;;;;;;;4991509;28;20042;-78
2022/05/14 13:53:07;;;;;;;1.20;0.43;;;;;;;;;;4990677;28;20544;-80
2022/05/14 13:55:40;;;;;;;0.35;0.20;;;;;;;;;;4963591;28;20477;-77
2022/05/14 13:58:13;;;;;;;2.20;0.30;;;;;;;;;;4977492;28;20029;-76
2022/05/14 14:00:59;;;;;;;0.35;0.20;;;;;;;;;;4996174;28;20041;-77
2022/05/14 14:03:41;;;;;;;0.30;0.22;;;;;;;;;;5008267;28;20097;-80
2022/05/14 14:06:07;;;;;;;0.52;0.35;;;;;;;;;;4989939;28;20042;-80
2022/05/14 14:08:33;;;;;;;0.20;0.10;;;;;;;;;;4970948;28;20831;-79
2022/05/14 14:10:58;;;;;;;0.50;0.30;;;;;;;;;;4989859;28;20042;-80
2022/05/14 14:13:24;;;;;;;1.58;0.22;;;;;;;;;;4977320;28;20042;-80
2022/05/14 14:15:49;;;;;;;0.40;0.20;;;;;;;;;;4989786;28;20092;-80
2022/05/14 14:18:15;;;;;;;0.57;0.30;;;;;;;;;;4984411;28;20548;-78
2022/05/14 14:20:44;;;;;;;5.35;0.90;;;;;;;;;;4974488;28;20037;-77
2022/05/14 14:23:15;;;;;;;2.58;0.63;;;;;;;;;;4974600;28;20036;-78
2022/05/14 14:25:41;;;;;;;1.35;0.50;;;;;;;;;;4974082;28;20653;-79
2022/05/14 14:28:08;;;;;;;1.10;0.57;;;;;;;;;;4978664;28;20042;-78
2022/05/14 14:30:34;;;;;;;0.10;0.10;;;;;;;;;;4963240;28;20501;-79
2022/05/14 14:33:01;;;;;;;3.85;0.88;;;;;;;;;;4975293;28;20049;-78
2022/05/14 14:35:26;;;;;;;;;;;;;;;;;;4974563;28;20121;-78
2022/05/14 14:37:52;;;;;;;0.68;0.30;;;;;;;;;;4974340;28;20341;-78
2022/05/14 14:40:18;;;;;;;0.57;0.20;;;;;;;;;;4973908;28;20089;-78
2022/05/14 14:42:44;;;;;;;3.63;1.38;;;;;;;;;;4976730;28;20493;-79
2022/05/14 14:45:13;;;;;;;10.48;1.60;;;;;;;;;;4973181;28;20034;-79
2022/05/14 14:47:46;;;;;;;0.15;0.10;;;;;;;;;;4986486;28;20559;-79
2022/05/14 14:50:13;;;;;;;0.88;0.30;;;;;;;;;;4975028;28;20034;-79
2022/05/14 14:52:39;;;;;;;3.85;0.35;;;;;;;;;;4972989;28;20042;-78
2022/05/14 14:55:05;;;;;;;3.85;0.47;;;;;;;;;;4972608;28;20034;-79
2022/05/14 14:57:32;;;;;;;2.00;0.77;;;;;;;;;;4972393;28;20030;-76
2022/05/14 14:59:57;;;;;;;0.33;0.23;;;;;;;;;;4973769;28;20049;-76
2022/05/14 15:02:31;;;;;;;3.20;1.15;;;;;;;;;;4976976;28;20285;-77
2022/05/14 15:05:09;;;;;;;3.25;0.70;;;;;;;;;;4988574;28;20046;-78
2022/05/14 15:07:35;;;;;;;1.50;0.45;;;;;;;;;;4979388;28;20552;-76
2022/05/14 15:10:01;;;;;;;1.00;0.55;;;;;;;;;;4989592;28;20034;-79
2022/05/14 15:12:27;;;;;;;0.98;0.45;;;;;;;;;;4989113;28;20049;-78
2022/05/14 15:14:53;;;;;;;0.50;0.28;;;;;;;;;;4985917;28;20544;-80
2022/05/14 15:17:18;;;;;;;0.40;0.20;;;;;;;;;;4972560;28;20033;-81
2022/05/14 15:19:43;;;;;;;2.00;0.57;;;;;;;;;;4973995;28;20041;-80
2022/05/14 15:22:09;;;;;;;0.30;0.20;;;;;;;;;;4972789;28;20040;-80